sensor_id;sensor_type;location;lat;lon;timestamp;temperature;humidity
56869;DHT22;42754;0.000;0.000;2022-12-19T00:01:23;0.40;99.90
56869;DHT22;42754;0.000;0.000;2022-12-19T00:03:54;0.40;99.90
56869;DHT22;42754;0.000;0.000;2022-12-19T00:06:20;0.40;99.90
56869;DHT22;42754;0.000;0.000;2022-12-19T00:08:48;0.40;99.90
56869;DHT22;42754;0.000;0.000;2022-12-19T00:11:14;0.40;99.90
56869;DHT22;42754;0.000;0.000;2022-12-19T00:13:40;0.40;99.90
56869;DHT22;42754;0.000;0.000;2022-12-19T00:16:07;0.40;99.90
56869;DHT22;42754;0.000;0.000;2022-12-19T00:18:34;0.50;99.90
56869;DHT22;42754;0.000;0.000;2022-12-19T00:21:02;0.50;99.90
56869;DHT22;42754;0.000;0.000;2022-12-19T00:23:29;0.50;99.90
56869;DHT22;42754;0.000;0.000;2022-12-19T00:25:55;0.50;99.90
56869;DHT22;42754;0.000;0.000;2022-12-19T00:28:21;0.60;99.90
56869;DHT22;42754;0.000;0.000;2022-12-19T00:30:46;0.60;99.90
56869;DHT22;42754;0.000;0.000;2022-12-19T00:33:12;0.60;99.90
56869;DHT22;42754;0.000;0.000;2022-12-19T00:35:38;0.60;99.90
56869;DHT22;42754;0.000;0.000;2022-12-19T00:38:04;0.60;99.90
56869;DHT22;42754;0.000;0.000;2022-12-19T00:40:30;0.60;99.90
56869;DHT22;42754;0.000;0.000;2022-12-19T00:42:55;0.60;99.90
56869;DHT22;42754;0.000;0.000;2022-12-19T00:45:21;0.60;99.90
56869;DHT22;42754;0.000;0.000;2022-12-19T00:47:47;0.70;99.90
56869;DHT22;42754;0.000;0.000;2022-12-19T00:50:12;0.60;99.90
56869;DHT22;42754;0.000;0.000;2022-12-19T00:52:38;0.70;99.90
56869;DHT22;42754;0.000;0.000;2022-12-19T00:55:04;0.70;99.90
56869;DHT22;42754;0.000;0.000;2022-12-19T00:57:29;0.70;99.90
56869;DHT22;42754;0.000;0.000;2022-12-19T00:59:55;0.70;99.90
56869;DHT22;42754;0.000;0.000;2022-12-19T01:02:21;0.70;99.90
56869;DHT22;42754;0.000;0.000;2022-12-19T01:04:46;0.70;99.90
56869;DHT22;42754;0.000;0.000;2022-12-19T01:07:12;0.70;99.90
56869;DHT22;42754;0.000;0.000;2022-12-19T01:09:37;0.70;99.90
56869;DHT22;42754;0.000;0.000;2022-12-19T01:12:04;0.70;99.90
56869;DHT22;42754;0.000;0.000;2022-12-19T01:14:50;0.70;99.90
56869;DHT22;42754;0.000;0.000;2022-12-19T01:17:16;0.70;99.90
56869;DHT22;42754;0.000;0.000;2022-12-19T01:19:41;0.70;99.90
56869;DHT22;42754;0.000;0.000;2022-12-19T01:22:07;0.70;99.90
56869;DHT22;42754;0.000;0.000;2022-12-19T01:24:33;0.70;99.90
56869;DHT22;42754;0.000;0.000;2022-12-19T01:26:58;0.80;99.90
56869;DHT22;42754;0.000;0.000;2022-12-19T01:29:24;0.80;99.90
56869;DHT22;42754;0.000;0.000;2022-12-19T01:31:49;0.80;99.90
56869;DHT22;42754;0.000;0.000;2022-12-19T01:34:15;0.80;99.90
56869;DHT22;42754;0.000;0.000;2022-12-19T01:36:41;0.80;99.90
56869;DHT22;42754;0.000;0.000;2022-12-19T01:39:06;0.80;99.90
56869;DHT22;42754;0.000;0.000;2022-12-19T01:41:32;0.80;99.90
56869;DHT22;42754;0.000;0.000;2022-12-19T01:43:59;0.90;99.90
56869;DHT22;42754;0.000;0.000;2022-12-19T01:46:38;0.80;99.90
56869;DHT22;42754;0.000;0.000;2022-12-19T01:49:06;0.90;99.90
56869;DHT22;42754;0.000;0.000;2022-12-19T01:51:40;0.90;99.90
56869;DHT22;42754;0.000;0.000;2022-12-19T01:54:09;0.90;99.90
56869;DHT22;42754;0.000;0.000;2022-12-19T01:56:37;0.90;99.90
56869;DHT22;42754;0.000;0.000;2022-12-19T01:59:05;1.00;99.90
56869;DHT22;42754;0.000;0.000;2022-12-19T02:01:32;0.90;99.90
56869;DHT22;42754;0.000;0.000;2022-12-19T02:03:58;1.00;99.90
56869;DHT22;42754;0.000;0.000;2022-12-19T02:06:26;1.00;99.90
56869;DHT22;42754;0.000;0.000;2022-12-19T02:08:51;1.00;99.90
56869;DHT22;42754;0.000;0.000;2022-12-19T02:11:17;1.10;99.90
56869;DHT22;42754;0.000;0.000;2022-12-19T02:13:43;1.10;99.90
56869;DHT22;42754;0.000;0.000;2022-12-19T02:18:51;1.00;99.90
56869;DHT22;42754;0.000;0.000;2022-12-19T02:37:16;1.10;99.90
56869;DHT22;42754;0.000;0.000;2022-12-19T02:39:50;1.20;99.90
56869;DHT22;42754;0.000;0.000;2022-12-19T02:42:21;1.20;99.90
56869;DHT22;42754;0.000;0.000;2022-12-19T02:44:49;1.10;99.90
56869;DHT22;42754;0.000;0.000;2022-12-19T02:47:15;1.20;99.90
56869;DHT22;42754;0.000;0.000;2022-12-19T02:49:41;1.20;99.90
56869;DHT22;42754;0.000;0.000;2022-12-19T02:54:45;1.20;99.90
56869;DHT22;42754;0.000;0.000;2022-12-19T03:15:30;1.30;99.90
56869;DHT22;42754;0.000;0.000;2022-12-19T03:17:59;1.30;99.90
56869;DHT22;42754;0.000;0.000;2022-12-19T03:22:51;1.30;99.90
56869;DHT22;42754;0.000;0.000;2022-12-19T03:25:17;1.30;99.90
56869;DHT22;42754;0.000;0.000;2022-12-19T03:27:44;1.30;99.90
56869;DHT22;42754;0.000;0.000;2022-12-19T03:30:11;1.40;99.90
56869;DHT22;42754;0.000;0.000;2022-12-19T03:32:37;1.40;99.90
56869;DHT22;42754;0.000;0.000;2022-12-19T03:35:06;1.40;99.90
56869;DHT22;42754;0.000;0.000;2022-12-19T03:37:34;1.40;99.90
56869;DHT22;42754;0.000;0.000;2022-12-19T03:40:01;1.40;99.90
56869;DHT22;42754;0.000;0.000;2022-12-19T03:42:28;1.50;99.90
56869;DHT22;42754;0.000;0.000;2022-12-19T03:45:17;1.40;99.90
56869;DHT22;42754;0.000;0.000;2022-12-19T03:47:48;1.40;99.90
56869;DHT22;42754;0.000;0.000;2022-12-19T03:50:15;1.50;99.90
56869;DHT22;42754;0.000;0.000;2022-12-19T03:52:45;1.50;99.90
56869;DHT22;42754;0.000;0.000;2022-12-19T03:55:15;1.50;99.90
56869;DHT22;42754;0.000;0.000;2022-12-19T03:57:45;1.60;99.90
56869;DHT22;42754;0.000;0.000;2022-12-19T04:00:12;1.60;99.90
56869;DHT22;42754;0.000;0.000;2022-12-19T04:02:39;1.60;99.90
56869;DHT22;42754;0.000;0.000;2022-12-19T04:05:10;1.70;99.90
56869;DHT22;42754;0.000;0.000;2022-12-19T04:07:37;1.70;99.90
56869;DHT22;42754;0.000;0.000;2022-12-19T04:10:06;1.60;99.90
56869;DHT22;42754;0.000;0.000;2022-12-19T04:12:37;1.60;99.90
56869;DHT22;42754;0.000;0.000;2022-12-19T04:15:04;1.70;99.90
56869;DHT22;42754;0.000;0.000;2022-12-19T04:20:14;1.70;99.90
56869;DHT22;42754;0.000;0.000;2022-12-19T04:22:42;1.70;99.90
56869;DHT22;42754;0.000;0.000;2022-12-19T04:25:11;1.70;99.90
56869;DHT22;42754;0.000;0.000;2022-12-19T04:27:39;1.70;99.90
56869;DHT22;42754;0.000;0.000;2022-12-19T04:30:05;1.70;99.90
56869;DHT22;42754;0.000;0.000;2022-12-19T04:32:31;1.70;99.90
56869;DHT22;42754;0.000;0.000;2022-12-19T04:34:58;1.80;99.90
56869;DHT22;42754;0.000;0.000;2022-12-19T04:37:24;1.80;99.90
56869;DHT22;42754;0.000;0.000;2022-12-19T04:39:49;1.80;99.90
56869;DHT22;42754;0.000;0.000;2022-12-19T04:42:15;1.80;99.90
56869;DHT22;42754;0.000;0.000;2022-12-19T04:44:42;1.90;99.90
56869;DHT22;42754;0.000;0.000;2022-12-19T04:47:07;1.90;99.90
56869;DHT22;42754;0.000;0.000;2022-12-19T04:49:33;2.00;99.90
56869;DHT22;42754;0.000;0.000;2022-12-19T04:51:58;1.90;99.90
56869;DHT22;42754;0.000;0.000;2022-12-19T04:54:24;1.90;99.90
56869;DHT22;42754;0.000;0.000;2022-12-19T04:56:51;1.90;99.90
56869;DHT22;42754;0.000;0.000;2022-12-19T04:59:17;2.00;99.90
56869;DHT22;42754;0.000;0.000;2022-12-19T05:01:42;2.00;99.90
56869;DHT22;42754;0.000;0.000;2022-12-19T05:04:09;2.00;99.90
56869;DHT22;42754;0.000;0.000;2022-12-19T05:06:34;2.00;99.90
56869;DHT22;42754;0.000;0.000;2022-12-19T05:09:00;2.00;99.90
56869;DHT22;42754;0.000;0.000;2022-12-19T05:11:26;2.00;99.90
56869;DHT22;42754;0.000;0.000;2022-12-19T05:13:51;2.10;99.90
56869;DHT22;42754;0.000;0.000;2022-12-19T05:16:17;2.10;99.90
56869;DHT22;42754;0.000;0.000;2022-12-19T05:18:43;2.10;99.90
56869;DHT22;42754;0.000;0.000;2022-12-19T05:21:08;2.10;99.90
56869;DHT22;42754;0.000;0.000;2022-12-19T05:23:35;2.30;99.90
56869;DHT22;42754;0.000;0.000;2022-12-19T05:26:01;2.30;99.90
56869;DHT22;42754;0.000;0.000;2022-12-19T05:28:27;2.20;99.90
56869;DHT22;42754;0.000;0.000;2022-12-19T05:31:06;2.20;99.90
56869;DHT22;42754;0.000;0.000;2022-12-19T05:33:32;2.30;99.90
56869;DHT22;42754;0.000;0.000;2022-12-19T05:35:57;2.30;99.90
56869;DHT22;42754;0.000;0.000;2022-12-19T05:38:24;2.30;99.90
56869;DHT22;42754;0.000;0.000;2022-12-19T05:40:49;2.30;99.90
56869;DHT22;42754;0.000;0.000;2022-12-19T05:43:16;2.30;99.90
56869;DHT22;42754;0.000;0.000;2022-12-19T05:45:41;2.30;99.90
56869;DHT22;42754;0.000;0.000;2022-12-19T05:48:07;2.40;99.90
56869;DHT22;42754;0.000;0.000;2022-12-19T05:50:33;2.40;99.90
56869;DHT22;42754;0.000;0.000;2022-12-19T05:52:58;2.50;99.90
56869;DHT22;42754;0.000;0.000;2022-12-19T05:55:24;2.50;99.90
56869;DHT22;42754;0.000;0.000;2022-12-19T05:57:49;2.60;99.90
56869;DHT22;42754;0.000;0.000;2022-12-19T06:00:15;2.60;99.90
56869;DHT22;42754;0.000;0.000;2022-12-19T06:02:40;2.70;99.90
56869;DHT22;42754;0.000;0.000;2022-12-19T06:05:06;2.70;99.90
56869;DHT22;42754;0.000;0.000;2022-12-19T06:07:32;2.80;99.90
56869;DHT22;42754;0.000;0.000;2022-12-19T06:09:58;2.70;99.90
56869;DHT22;42754;0.000;0.000;2022-12-19T06:12:24;2.80;99.90
56869;DHT22;42754;0.000;0.000;2022-12-19T06:14:49;2.80;99.90
56869;DHT22;42754;0.000;0.000;2022-12-19T06:17:15;2.80;99.90
56869;DHT22;42754;0.000;0.000;2022-12-19T06:19:40;2.80;99.90
56869;DHT22;42754;0.000;0.000;2022-12-19T06:22:06;2.90;99.90
56869;DHT22;42754;0.000;0.000;2022-12-19T06:24:31;2.80;99.90
56869;DHT22;42754;0.000;0.000;2022-12-19T06:26:57;2.80;99.90
56869;DHT22;42754;0.000;0.000;2022-12-19T06:29:23;3.00;99.90
56869;DHT22;42754;0.000;0.000;2022-12-19T06:31:48;3.10;99.90
56869;DHT22;42754;0.000;0.000;2022-12-19T06:34:14;3.30;99.90
56869;DHT22;42754;0.000;0.000;2022-12-19T06:36:39;3.20;99.90
56869;DHT22;42754;0.000;0.000;2022-12-19T06:39:05;3.40;99.90
56869;DHT22;42754;0.000;0.000;2022-12-19T06:41:30;3.20;99.90
56869;DHT22;42754;0.000;0.000;2022-12-19T06:44:16;3.40;99.90
56869;DHT22;42754;0.000;0.000;2022-12-19T06:46:42;3.50;99.90
56869;DHT22;42754;0.000;0.000;2022-12-19T06:49:08;3.40;99.90
56869;DHT22;42754;0.000;0.000;2022-12-19T06:51:33;3.60;99.90
56869;DHT22;42754;0.000;0.000;2022-12-19T06:53:59;3.60;99.90
56869;DHT22;42754;0.000;0.000;2022-12-19T06:56:25;3.70;99.90
56869;DHT22;42754;0.000;0.000;2022-12-19T06:58:50;3.70;99.90
56869;DHT22;42754;0.000;0.000;2022-12-19T07:04:08;3.80;99.90
56869;DHT22;42754;0.000;0.000;2022-12-19T07:06:35;3.60;99.90
56869;DHT22;42754;0.000;0.000;2022-12-19T07:09:01;3.70;99.90
56869;DHT22;42754;0.000;0.000;2022-12-19T07:11:26;3.70;99.90
56869;DHT22;42754;0.000;0.000;2022-12-19T07:13:52;3.80;99.90
56869;DHT22;42754;0.000;0.000;2022-12-19T07:16:17;3.80;99.90
56869;DHT22;42754;0.000;0.000;2022-12-19T07:18:44;3.90;99.90
56869;DHT22;42754;0.000;0.000;2022-12-19T07:21:10;3.90;99.90
56869;DHT22;42754;0.000;0.000;2022-12-19T07:23:35;3.90;99.90
56869;DHT22;42754;0.000;0.000;2022-12-19T07:26:01;4.10;99.90
56869;DHT22;42754;0.000;0.000;2022-12-19T07:28:27;3.90;99.90
56869;DHT22;42754;0.000;0.000;2022-12-19T07:30:53;4.00;99.90
56869;DHT22;42754;0.000;0.000;2022-12-19T07:33:18;4.10;99.90
56869;DHT22;42754;0.000;0.000;2022-12-19T07:35:44;4.10;99.90
56869;DHT22;42754;0.000;0.000;2022-12-19T07:38:10;4.10;99.90
56869;DHT22;42754;0.000;0.000;2022-12-19T07:40:35;4.10;99.90
56869;DHT22;42754;0.000;0.000;2022-12-19T07:43:02;4.20;99.90
56869;DHT22;42754;0.000;0.000;2022-12-19T07:45:28;4.20;99.90
56869;DHT22;42754;0.000;0.000;2022-12-19T07:47:54;4.40;99.90
56869;DHT22;42754;0.000;0.000;2022-12-19T07:50:19;4.30;99.90
56869;DHT22;42754;0.000;0.000;2022-12-19T07:52:45;4.20;99.90
56869;DHT22;42754;0.000;0.000;2022-12-19T07:55:11;4.20;99.90
56869;DHT22;42754;0.000;0.000;2022-12-19T07:57:36;4.40;99.90
56869;DHT22;42754;0.000;0.000;2022-12-19T08:00:02;4.40;99.90
56869;DHT22;42754;0.000;0.000;2022-12-19T08:02:28;4.40;99.90
56869;DHT22;42754;0.000;0.000;2022-12-19T08:04:54;4.50;99.90
56869;DHT22;42754;0.000;0.000;2022-12-19T08:07:19;4.30;99.90
56869;DHT22;42754;0.000;0.000;2022-12-19T08:09:45;4.50;99.90
56869;DHT22;42754;0.000;0.000;2022-12-19T08:12:10;4.30;99.90
56869;DHT22;42754;0.000;0.000;2022-12-19T08:14:36;4.60;99.90
56869;DHT22;42754;0.000;0.000;2022-12-19T08:17:01;4.60;99.90
56869;DHT22;42754;0.000;0.000;2022-12-19T08:19:27;4.50;99.90
56869;DHT22;42754;0.000;0.000;2022-12-19T08:21:52;4.60;99.90
56869;DHT22;42754;0.000;0.000;2022-12-19T08:24:19;4.60;99.90
56869;DHT22;42754;0.000;0.000;2022-12-19T08:26:44;4.70;99.90
56869;DHT22;42754;0.000;0.000;2022-12-19T08:29:10;4.60;99.90
56869;DHT22;42754;0.000;0.000;2022-12-19T08:31:35;4.70;99.90
56869;DHT22;42754;0.000;0.000;2022-12-19T08:34:01;4.90;99.90
56869;DHT22;42754;0.000;0.000;2022-12-19T08:36:27;4.90;99.90
56869;DHT22;42754;0.000;0.000;2022-12-19T08:38:53;4.90;99.90
56869;DHT22;42754;0.000;0.000;2022-12-19T08:41:18;4.80;99.90
56869;DHT22;42754;0.000;0.000;2022-12-19T08:43:51;4.80;99.90
56869;DHT22;42754;0.000;0.000;2022-12-19T08:46:17;4.90;99.90
56869;DHT22;42754;0.000;0.000;2022-12-19T08:48:43;5.00;99.90
56869;DHT22;42754;0.000;0.000;2022-12-19T08:51:09;5.00;99.90
56869;DHT22;42754;0.000;0.000;2022-12-19T08:53:36;5.10;99.90
56869;DHT22;42754;0.000;0.000;2022-12-19T08:56:20;5.10;99.90
56869;DHT22;42754;0.000;0.000;2022-12-19T08:58:46;5.20;99.90
56869;DHT22;42754;0.000;0.000;2022-12-19T09:01:12;5.30;99.90
56869;DHT22;42754;0.000;0.000;2022-12-19T09:03:39;5.30;99.90
56869;DHT22;42754;0.000;0.000;2022-12-19T09:06:06;5.30;99.90
56869;DHT22;42754;0.000;0.000;2022-12-19T09:08:33;5.30;99.90
56869;DHT22;42754;0.000;0.000;2022-12-19T09:11:13;5.20;99.90
56869;DHT22;42754;0.000;0.000;2022-12-19T09:13:39;5.40;99.90
56869;DHT22;42754;0.000;0.000;2022-12-19T09:16:06;5.40;99.90
56869;DHT22;42754;0.000;0.000;2022-12-19T09:18:32;5.40;99.90
56869;DHT22;42754;0.000;0.000;2022-12-19T09:20:58;5.50;99.90
56869;DHT22;42754;0.000;0.000;2022-12-19T09:23:24;5.50;99.90
56869;DHT22;42754;0.000;0.000;2022-12-19T09:25:54;5.60;99.90
56869;DHT22;42754;0.000;0.000;2022-12-19T09:28:19;5.40;99.90
56869;DHT22;42754;0.000;0.000;2022-12-19T09:30:45;5.40;99.90
56869;DHT22;42754;0.000;0.000;2022-12-19T09:33:18;5.50;99.90
56869;DHT22;42754;0.000;0.000;2022-12-19T09:35:50;5.60;99.90
56869;DHT22;42754;0.000;0.000;2022-12-19T09:38:16;5.40;99.90
56869;DHT22;42754;0.000;0.000;2022-12-19T09:40:49;5.60;99.90
56869;DHT22;42754;0.000;0.000;2022-12-19T09:43:21;5.60;99.90
56869;DHT22;42754;0.000;0.000;2022-12-19T09:48:27;5.60;99.90
56869;DHT22;42754;0.000;0.000;2022-12-19T09:51:01;5.50;99.90
56869;DHT22;42754;0.000;0.000;2022-12-19T09:53:30;5.60;99.90
56869;DHT22;42754;0.000;0.000;2022-12-19T09:55:57;5.70;99.90
56869;DHT22;42754;0.000;0.000;2022-12-19T09:58:31;5.80;99.90
56869;DHT22;42754;0.000;0.000;2022-12-19T10:01:01;5.80;99.90
56869;DHT22;42754;0.000;0.000;2022-12-19T10:03:31;5.70;99.90
56869;DHT22;42754;0.000;0.000;2022-12-19T10:06:05;5.80;99.90
56869;DHT22;42754;0.000;0.000;2022-12-19T10:08:39;5.90;99.90
56869;DHT22;42754;0.000;0.000;2022-12-19T10:16:33;6.00;99.90
56869;DHT22;42754;0.000;0.000;2022-12-19T10:19:44;5.90;99.90
56869;DHT22;42754;0.000;0.000;2022-12-19T10:22:00;6.00;99.90
56869;DHT22;42754;0.000;0.000;2022-12-19T10:27:15;6.00;99.90
56869;DHT22;42754;0.000;0.000;2022-12-19T10:29:46;6.20;99.90
56869;DHT22;42754;0.000;0.000;2022-12-19T10:32:18;5.90;99.90
56869;DHT22;42754;0.000;0.000;2022-12-19T10:34:46;6.00;99.90
56869;DHT22;42754;0.000;0.000;2022-12-19T10:37:15;6.10;99.90
56869;DHT22;42754;0.000;0.000;2022-12-19T10:39:47;6.10;99.90
56869;DHT22;42754;0.000;0.000;2022-12-19T10:42:16;6.20;99.90
56869;DHT22;42754;0.000;0.000;2022-12-19T10:44:43;6.10;99.90
56869;DHT22;42754;0.000;0.000;2022-12-19T10:47:13;6.20;99.90
56869;DHT22;42754;0.000;0.000;2022-12-19T10:49:39;6.20;99.90
56869;DHT22;42754;0.000;0.000;2022-12-19T10:52:05;6.10;99.90
56869;DHT22;42754;0.000;0.000;2022-12-19T10:59:55;6.40;99.90
56869;DHT22;42754;0.000;0.000;2022-12-19T11:03:07;6.30;99.90
56869;DHT22;42754;0.000;0.000;2022-12-19T11:05:26;6.50;99.90
56869;DHT22;42754;0.000;0.000;2022-12-19T11:10:33;6.40;99.90
56869;DHT22;42754;0.000;0.000;2022-12-19T11:12:58;6.40;99.90
56869;DHT22;42754;0.000;0.000;2022-12-19T11:15:24;6.40;99.90
56869;DHT22;42754;0.000;0.000;2022-12-19T11:17:49;6.50;99.90
56869;DHT22;42754;0.000;0.000;2022-12-19T11:20:19;6.50;99.90
56869;DHT22;42754;0.000;0.000;2022-12-19T11:22:51;6.60;99.90
56869;DHT22;42754;0.000;0.000;2022-12-19T11:25:18;6.60;99.90
56869;DHT22;42754;0.000;0.000;2022-12-19T11:27:45;6.50;99.90
56869;DHT22;42754;0.000;0.000;2022-12-19T11:30:25;6.50;99.90
56869;DHT22;42754;0.000;0.000;2022-12-19T11:35:44;6.40;99.90
56869;DHT22;42754;0.000;0.000;2022-12-19T11:38:09;6.50;99.90
56869;DHT22;42754;0.000;0.000;2022-12-19T11:40:45;6.40;99.90
56869;DHT22;42754;0.000;0.000;2022-12-19T11:48:23;6.50;99.90
56869;DHT22;42754;0.000;0.000;2022-12-19T11:50:55;6.60;99.90
56869;DHT22;42754;0.000;0.000;2022-12-19T11:53:27;6.50;99.90
56869;DHT22;42754;0.000;0.000;2022-12-19T11:56:11;6.60;99.90
56869;DHT22;42754;0.000;0.000;2022-12-19T11:58:38;6.60;99.90
56869;DHT22;42754;0.000;0.000;2022-12-19T12:06:11;6.70;99.90
56869;DHT22;42754;0.000;0.000;2022-12-19T12:08:43;6.80;99.90
56869;DHT22;42754;0.000;0.000;2022-12-19T12:16:15;6.70;99.90
56869;DHT22;42754;0.000;0.000;2022-12-19T12:21:44;6.80;99.90
56869;DHT22;42754;0.000;0.000;2022-12-19T12:24:22;6.90;99.90
56869;DHT22;42754;0.000;0.000;2022-12-19T12:29:30;7.00;99.90
56869;DHT22;42754;0.000;0.000;2022-12-19T12:31:59;6.60;99.90
56869;DHT22;42754;0.000;0.000;2022-12-19T12:34:44;7.00;99.90
56869;DHT22;42754;0.000;0.000;2022-12-19T12:37:20;7.10;99.90
56869;DHT22;42754;0.000;0.000;2022-12-19T12:40:23;7.00;99.90
56869;DHT22;42754;0.000;0.000;2022-12-19T12:45:19;7.10;99.90
56869;DHT22;42754;0.000;0.000;2022-12-19T12:47:47;7.10;99.90
56869;DHT22;42754;0.000;0.000;2022-12-19T12:50:14;7.20;99.90
56869;DHT22;42754;0.000;0.000;2022-12-19T12:52:42;7.20;99.90
56869;DHT22;42754;0.000;0.000;2022-12-19T12:55:14;7.20;99.90
56869;DHT22;42754;0.000;0.000;2022-12-19T12:57:42;7.10;99.90
56869;DHT22;42754;0.000;0.000;2022-12-19T13:00:17;7.10;99.90
56869;DHT22;42754;0.000;0.000;2022-12-19T13:02:44;7.10;99.90
56869;DHT22;42754;0.000;0.000;2022-12-19T13:05:50;7.30;99.90
56869;DHT22;42754;0.000;0.000;2022-12-19T13:10:55;7.30;99.90
56869;DHT22;42754;0.000;0.000;2022-12-19T13:13:46;7.20;99.90
56869;DHT22;42754;0.000;0.000;2022-12-19T13:19:01;7.20;99.90
56869;DHT22;42754;0.000;0.000;2022-12-19T13:21:57;7.50;99.90
56869;DHT22;42754;0.000;0.000;2022-12-19T13:24:19;7.40;99.90
56869;DHT22;42754;0.000;0.000;2022-12-19T13:26:47;7.50;99.90
56869;DHT22;42754;0.000;0.000;2022-12-19T13:29:33;7.40;99.90
56869;DHT22;42754;0.000;0.000;2022-12-19T13:32:13;7.40;99.90
56869;DHT22;42754;0.000;0.000;2022-12-19T13:34:39;7.40;99.90
56869;DHT22;42754;0.000;0.000;2022-12-19T13:39:34;7.40;99.90
56869;DHT22;42754;0.000;0.000;2022-12-19T13:42:10;7.40;99.90
56869;DHT22;42754;0.000;0.000;2022-12-19T13:44:55;7.40;99.90
56869;DHT22;42754;0.000;0.000;2022-12-19T13:47:22;7.30;99.90
56869;DHT22;42754;0.000;0.000;2022-12-19T13:49:48;7.40;99.90
56869;DHT22;42754;0.000;0.000;2022-12-19T13:52:15;7.40;99.90
56869;DHT22;42754;0.000;0.000;2022-12-19T13:54:45;7.50;99.90
56869;DHT22;42754;0.000;0.000;2022-12-19T13:57:22;7.40;99.90
56869;DHT22;42754;0.000;0.000;2022-12-19T13:59:48;7.40;99.90
56869;DHT22;42754;0.000;0.000;2022-12-19T14:02:28;7.40;99.90
56869;DHT22;42754;0.000;0.000;2022-12-19T14:04:54;7.30;99.90
56869;DHT22;42754;0.000;0.000;2022-12-19T14:07:23;7.10;99.90
56869;DHT22;42754;0.000;0.000;2022-12-19T14:09:50;7.20;99.90
56869;DHT22;42754;0.000;0.000;2022-12-19T14:12:24;7.20;99.90
56869;DHT22;42754;0.000;0.000;2022-12-19T14:17:53;7.20;99.90
56869;DHT22;42754;0.000;0.000;2022-12-19T14:20:22;7.20;99.90
56869;DHT22;42754;0.000;0.000;2022-12-19T14:22:48;7.20;99.90
56869;DHT22;42754;0.000;0.000;2022-12-19T14:25:14;7.20;99.90
56869;DHT22;42754;0.000;0.000;2022-12-19T14:27:40;7.20;99.90
56869;DHT22;42754;0.000;0.000;2022-12-19T14:30:18;7.30;99.90
56869;DHT22;42754;0.000;0.000;2022-12-19T14:32:45;7.30;99.90
56869;DHT22;42754;0.000;0.000;2022-12-19T14:35:14;7.30;99.90
56869;DHT22;42754;0.000;0.000;2022-12-19T14:37:42;7.30;99.90
56869;DHT22;42754;0.000;0.000;2022-12-19T14:40:24;7.20;99.90
56869;DHT22;42754;0.000;0.000;2022-12-19T14:42:51;7.20;99.90
56869;DHT22;42754;0.000;0.000;2022-12-19T14:45:40;7.30;99.90
56869;DHT22;42754;0.000;0.000;2022-12-19T14:51:00;7.10;99.90
56869;DHT22;42754;0.000;0.000;2022-12-19T14:53:26;7.10;99.90
56869;DHT22;42754;0.000;0.000;2022-12-19T14:56:02;7.10;99.90
56869;DHT22;42754;0.000;0.000;2022-12-19T14:58:32;7.10;99.90
56869;DHT22;42754;0.000;0.000;2022-12-19T15:00:58;7.10;99.90
56869;DHT22;42754;0.000;0.000;2022-12-19T15:03:26;6.90;99.90
56869;DHT22;42754;0.000;0.000;2022-12-19T15:06:01;6.90;99.90
56869;DHT22;42754;0.000;0.000;2022-12-19T15:08:28;6.80;99.90
56869;DHT22;42754;0.000;0.000;2022-12-19T15:10:58;6.90;99.90
56869;DHT22;42754;0.000;0.000;2022-12-19T15:13:49;6.70;99.90
56869;DHT22;42754;0.000;0.000;2022-12-19T15:16:26;6.70;99.90
56869;DHT22;42754;0.000;0.000;2022-12-19T15:18:52;6.70;99.90
56869;DHT22;42754;0.000;0.000;2022-12-19T15:21:19;6.70;99.90
56869;DHT22;42754;0.000;0.000;2022-12-19T15:23:45;6.70;99.90
56869;DHT22;42754;0.000;0.000;2022-12-19T15:26:11;6.60;99.90
56869;DHT22;42754;0.000;0.000;2022-12-19T15:31:14;6.70;99.90
56869;DHT22;42754;0.000;0.000;2022-12-19T15:33:42;6.70;99.90
56869;DHT22;42754;0.000;0.000;2022-12-19T15:36:08;6.70;99.90
56869;DHT22;42754;0.000;0.000;2022-12-19T15:38:34;6.70;99.90
56869;DHT22;42754;0.000;0.000;2022-12-19T15:41:01;6.70;99.90
56869;DHT22;42754;0.000;0.000;2022-12-19T15:43:27;6.70;99.90
56869;DHT22;42754;0.000;0.000;2022-12-19T15:45:56;6.70;99.90
56869;DHT22;42754;0.000;0.000;2022-12-19T15:48:25;6.70;99.90
56869;DHT22;42754;0.000;0.000;2022-12-19T15:50:51;6.70;99.90
56869;DHT22;42754;0.000;0.000;2022-12-19T15:53:21;6.70;99.90
56869;DHT22;42754;0.000;0.000;2022-12-19T15:55:50;6.70;99.90
56869;DHT22;42754;0.000;0.000;2022-12-19T15:58:17;6.70;99.90
56869;DHT22;42754;0.000;0.000;2022-12-19T16:00:51;6.60;99.90
56869;DHT22;42754;0.000;0.000;2022-12-19T16:03:18;6.70;99.90
56869;DHT22;42754;0.000;0.000;2022-12-19T16:05:44;6.70;99.90
56869;DHT22;42754;0.000;0.000;2022-12-19T16:08:14;6.70;99.90
56869;DHT22;42754;0.000;0.000;2022-12-19T16:10:41;6.70;99.90
56869;DHT22;42754;0.000;0.000;2022-12-19T16:15:37;6.70;99.90
56869;DHT22;42754;0.000;0.000;2022-12-19T16:18:05;6.70;99.90
56869;DHT22;42754;0.000;0.000;2022-12-19T16:20:31;6.60;99.90
56869;DHT22;42754;0.000;0.000;2022-12-19T16:22:58;6.60;99.90
56869;DHT22;42754;0.000;0.000;2022-12-19T16:25:26;6.60;99.90
56869;DHT22;42754;0.000;0.000;2022-12-19T16:27:54;6.50;99.90
56869;DHT22;42754;0.000;0.000;2022-12-19T16:30:21;6.50;99.90
56869;DHT22;42754;0.000;0.000;2022-12-19T16:32:48;6.60;99.90
56869;DHT22;42754;0.000;0.000;2022-12-19T16:35:19;6.60;99.90
56869;DHT22;42754;0.000;0.000;2022-12-19T16:37:46;6.50;99.90
56869;DHT22;42754;0.000;0.000;2022-12-19T16:40:15;6.60;99.90
56869;DHT22;42754;0.000;0.000;2022-12-19T16:42:42;6.50;99.90
56869;DHT22;42754;0.000;0.000;2022-12-19T16:45:22;6.60;99.90
56869;DHT22;42754;0.000;0.000;2022-12-19T16:47:48;6.60;99.90
56869;DHT22;42754;0.000;0.000;2022-12-19T16:50:24;6.60;99.90
56869;DHT22;42754;0.000;0.000;2022-12-19T16:52:50;6.60;99.90
56869;DHT22;42754;0.000;0.000;2022-12-19T16:55:16;6.60;99.90
56869;DHT22;42754;0.000;0.000;2022-12-19T16:57:42;6.60;99.90
56869;DHT22;42754;0.000;0.000;2022-12-19T17:00:10;6.60;99.90
56869;DHT22;42754;0.000;0.000;2022-12-19T17:05:19;6.60;99.90
56869;DHT22;42754;0.000;0.000;2022-12-19T17:07:44;6.60;99.90
56869;DHT22;42754;0.000;0.000;2022-12-19T17:10:10;6.70;99.90
56869;DHT22;42754;0.000;0.000;2022-12-19T17:12:36;6.60;99.90
56869;DHT22;42754;0.000;0.000;2022-12-19T17:15:03;6.60;99.90
56869;DHT22;42754;0.000;0.000;2022-12-19T17:17:30;6.60;99.90
56869;DHT22;42754;0.000;0.000;2022-12-19T17:19:56;6.50;99.90
56869;DHT22;42754;0.000;0.000;2022-12-19T17:22:22;6.60;99.90
56869;DHT22;42754;0.000;0.000;2022-12-19T17:24:47;6.60;99.90
56869;DHT22;42754;0.000;0.000;2022-12-19T17:27:13;6.60;99.90
56869;DHT22;42754;0.000;0.000;2022-12-19T17:29:40;6.50;99.90
56869;DHT22;42754;0.000;0.000;2022-12-19T17:32:06;6.50;99.90
56869;DHT22;42754;0.000;0.000;2022-12-19T17:34:33;6.50;99.90
56869;DHT22;42754;0.000;0.000;2022-12-19T17:37:00;6.50;99.90
56869;DHT22;42754;0.000;0.000;2022-12-19T17:39:27;6.50;99.90
56869;DHT22;42754;0.000;0.000;2022-12-19T17:41:57;6.50;99.90
56869;DHT22;42754;0.000;0.000;2022-12-19T17:44:23;6.50;99.90
56869;DHT22;42754;0.000;0.000;2022-12-19T17:46:50;6.50;99.90
56869;DHT22;42754;0.000;0.000;2022-12-19T17:49:16;6.50;99.90
56869;DHT22;42754;0.000;0.000;2022-12-19T17:51:44;6.50;99.90
56869;DHT22;42754;0.000;0.000;2022-12-19T17:54:10;6.50;99.90
56869;DHT22;42754;0.000;0.000;2022-12-19T17:56:36;6.60;99.90
56869;DHT22;42754;0.000;0.000;2022-12-19T17:59:02;6.60;99.90
56869;DHT22;42754;0.000;0.000;2022-12-19T18:01:27;6.60;99.90
56869;DHT22;42754;0.000;0.000;2022-12-19T18:03:53;6.60;99.90